Time;durP1;ratioP1;P1;durP2;ratioP2;P2;SDS_P1;SDS_P2;PMS_P1;PMS_P2;Temp;Humidity;BMP_temperature;BMP_pressure;BME280_temperature;BME280_humidity;BME280_pressure;Samples;Min_cycle;Max_cycle;Signal;HPM_P1;HPM_P2
2023/09/24 00:00:10;;;;;;;65.65;20.38;;;11.20;99.90;;;;;;4989342;28;20022;-76
2023/09/24 00:02:36;;;;;;;65.78;21.15;;;11.10;99.90;;;;;;4989293;28;20536;-74
2023/09/24 00:05:05;;;;;;;56.28;20.05;;;11.20;99.90;;;;;;4995337;28;20038;-73
2023/09/24 00:07:30;;;;;;;67.07;20.58;;;11.20;99.90;;;;;;4984433;28;20045;-75
2023/09/24 00:10:00;;;;;;;56.42;19.88;;;11.20;99.90;;;;;;4993230;28;20042;-74
2023/09/24 00:12:25;;;;;;;70.20;21.23;;;11.20;99.90;;;;;;4991689;28;20030;-73
2023/09/24 00:14:51;;;;;;;56.97;20.50;;;11.20;99.90;;;;;;4996117;28;20140;-74
2023/09/24 00:17:16;;;;;;;64.43;21.25;;;11.20;99.90;;;;;;4994646;28;20428;-74
2023/09/24 00:19:42;;;;;;;56.92;19.67;;;11.20;99.90;;;;;;4996405;28;20038;-73
2023/09/24 00:22:07;;;;;;;62.83;19.63;;;11.20;99.90;;;;;;5000102;28;20066;-74
2023/09/24 00:24:32;;;;;;;57.33;19.10;;;11.20;99.90;;;;;;5000169;28;20124;-74
2023/09/24 00:26:58;;;;;;;55.55;18.55;;;11.20;99.90;;;;;;4994124;28;20034;-74
2023/09/24 00:29:23;;;;;;;59.63;18.92;;;11.10;99.90;;;;;;4988943;28;20460;-74
2023/09/24 00:31:49;;;;;;;53.95;18.55;;;11.10;99.90;;;;;;4990693;28;20046;-74
2023/09/24 00:34:14;;;;;;;52.70;19.42;;;11.10;99.90;;;;;;4997020;28;20382;-74
2023/09/24 00:36:40;;;;;;;51.55;18.83;;;11.10;99.90;;;;;;4995247;28;20030;-74
2023/09/24 00:39:05;;;;;;;55.38;20.13;;;11.20;99.90;;;;;;4995193;28;20038;-73
2023/09/24 00:41:31;;;;;;;60.25;20.25;;;11.10;99.90;;;;;;4992650;28;20034;-75
2023/09/24 00:44:00;;;;;;;62.85;20.65;;;11.10;99.90;;;;;;4989716;28;20030;-74
2023/09/24 00:46:27;;;;;;;51.85;19.33;;;11.10;99.90;;;;;;4971430;28;20030;-74
2023/09/24 00:48:56;;;;;;;54.90;18.92;;;11.00;99.90;;;;;;4995168;28;20062;-75
2023/09/24 00:51:24;;;;;;;60.17;19.30;;;11.00;99.90;;;;;;4976601;28;20394;-73
2023/09/24 00:53:52;;;;;;;55.17;18.95;;;10.90;99.90;;;;;;4999370;28;20030;-74
2023/09/24 00:56:17;;;;;;;58.03;18.40;;;10.80;99.90;;;;;;5006347;28;20117;-76
2023/09/24 00:58:46;;;;;;;51.17;18.25;;;10.70;99.90;;;;;;4973372;28;20117;-73
2023/09/24 01:01:12;;;;;;;52.70;17.42;;;10.60;99.90;;;;;;4983219;28;20030;-75
2023/09/24 01:03:40;;;;;;;48.50;17.17;;;10.50;99.90;;;;;;4988175;28;20534;-75
2023/09/24 01:06:07;;;;;;;50.97;16.70;;;10.50;99.90;;;;;;4997072;28;20181;-73
2023/09/24 01:08:33;;;;;;;46.92;16.52;;;10.50;99.90;;;;;;4992617;28;20045;-75
2023/09/24 01:11:00;;;;;;;46.25;16.23;;;10.50;99.90;;;;;;4986923;28;20482;-73
2023/09/24 01:13:39;;;;;;;48.92;16.88;;;10.40;99.90;;;;;;4986931;28;20092;-74
2023/09/24 01:16:08;;;;;;;50.95;16.60;;;10.40;99.90;;;;;;4986926;28;20479;-74
2023/09/24 01:18:37;;;;;;;56.95;18.17;;;10.50;99.90;;;;;;4992197;28;20030;-73
2023/09/24 01:21:11;;;;;;;64.05;16.70;;;10.50;99.90;;;;;;4978349;28;20117;-74
2023/09/24 01:23:37;;;;;;;97.18;18.25;;;10.40;99.90;;;;;;4990815;28;20065;-74
2023/09/24 01:26:03;;;;;;;90.50;17.58;;;10.40;99.90;;;;;;4993450;28;20050;-74
2023/09/24 01:28:30;;;;;;;101.03;18.92;;;10.40;99.90;;;;;;5003106;28;20042;-74
2023/09/24 01:30:55;;;;;;;99.15;17.48;;;10.40;99.90;;;;;;4992753;28;20117;-73
2023/09/24 01:33:21;;;;;;;106.60;17.92;;;10.40;99.90;;;;;;4985319;28;20140;-73
2023/09/24 01:35:47;;;;;;;99.25;16.88;;;10.30;99.90;;;;;;4990946;28;20038;-74
2023/09/24 01:38:13;;;;;;;66.22;16.85;;;10.30;99.90;;;;;;4990097;28;20045;-73
2023/09/24 01:40:38;;;;;;;74.82;16.30;;;10.20;99.90;;;;;;4988701;28;20542;-74
2023/09/24 01:43:05;;;;;;;54.47;17.15;;;10.20;99.90;;;;;;4987917;28;20117;-73
2023/09/24 01:45:34;;;;;;;52.35;16.58;;;10.10;99.90;;;;;;4988567;28;20022;-73
2023/09/24 01:48:02;;;;;;;63.15;16.85;;;10.10;99.90;;;;;;4985987;28;20041;-74
2023/09/24 01:50:28;;;;;;;51.22;16.83;;;10.20;99.90;;;;;;4989934;28;20098;-73
2023/09/24 01:52:57;;;;;;;66.00;18.27;;;10.30;99.90;;;;;;4983436;28;20042;-73
2023/09/24 01:55:24;;;;;;;72.70;18.02;;;10.40;99.90;;;;;;4987904;28;20449;-76
2023/09/24 01:57:51;;;;;;;62.33;17.40;;;10.40;99.90;;;;;;4988065;28;20027;-76
2023/09/24 02:02:49;;;;;;;105.15;17.73;;;10.40;99.90;;;;;;4986600;28;20136;-74
2023/09/24 02:05:15;;;;;;;126.57;18.45;;;10.40;99.90;;;;;;4974633;28;20085;-74
2023/09/24 02:07:40;;;;;;;119.63;17.80;;;10.50;99.90;;;;;;4986986;28;20026;-74
2023/09/24 02:10:07;;;;;;;124.45;18.55;;;10.50;99.90;;;;;;4990944;28;20026;-73
2023/09/24 02:12:37;;;;;;;121.00;18.38;;;10.50;99.90;;;;;;4987233;28;20085;-75
2023/09/24 02:15:11;;;;;;;105.50;16.98;;;10.50;99.90;;;;;;4987563;28;20399;-74
2023/09/24 02:17:41;;;;;;;121.35;17.70;;;10.50;99.90;;;;;;4986969;28;20038;-75
2023/09/24 02:20:27;;;;;;;96.28;17.42;;;10.50;99.90;;;;;;4990630;28;20026;-75
2023/09/24 02:22:56;;;;;;;106.75;17.58;;;10.50;99.90;;;;;;4982319;28;20109;-74
2023/09/24 02:25:23;;;;;;;116.13;17.67;;;10.50;99.90;;;;;;4985642;28;20042;-74
2023/09/24 02:27:53;;;;;;;84.95;16.38;;;10.50;99.90;;;;;;4988585;28;20708;-73
2023/09/24 02:30:20;;;;;;;87.40;17.45;;;10.50;99.90;;;;;;4992453;28;20119;-74
2023/09/24 02:32:46;;;;;;;76.50;16.30;;;10.50;99.90;;;;;;4986248;28;20045;-74
2023/09/24 02:35:13;;;;;;;89.35;16.63;;;10.50;99.90;;;;;;4990965;28;20113;-73
2023/09/24 02:37:46;;;;;;;92.05;16.58;;;10.40;99.90;;;;;;4992667;28;20022;-73
2023/09/24 02:40:18;;;;;;;74.80;15.63;;;10.40;99.90;;;;;;4993688;28;20023;-73
2023/09/24 02:42:46;;;;;;;60.45;15.13;;;10.40;99.90;;;;;;4982454;28;20471;-74
2023/09/24 02:45:12;;;;;;;75.45;15.68;;;10.40;99.90;;;;;;4991097;28;20034;-73
2023/09/24 02:47:38;;;;;;;76.03;15.98;;;10.30;99.90;;;;;;4985574;28;20041;-73
2023/09/24 02:50:12;;;;;;;67.63;15.75;;;10.30;99.90;;;;;;4986372;28;20073;-76
2023/09/24 02:52:39;;;;;;;85.20;15.60;;;10.30;99.90;;;;;;4995028;28;20102;-74
2023/09/24 02:55:05;;;;;;;61.45;14.75;;;10.30;99.90;;;;;;4985070;28;20030;-74
2023/09/24 02:57:30;;;;;;;60.15;15.48;;;10.30;99.90;;;;;;4970821;28;20038;-74
2023/09/24 02:59:58;;;;;;;58.40;14.63;;;10.20;99.90;;;;;;4986946;28;20472;-73
2023/09/24 03:02:23;;;;;;;58.60;14.80;;;10.20;99.90;;;;;;4985921;28;20620;-75
2023/09/24 03:04:50;;;;;;;59.20;14.60;;;10.20;99.90;;;;;;4986877;28;20046;-74
2023/09/24 03:07:15;;;;;;;54.35;14.27;;;10.20;99.90;;;;;;4986312;28;20046;-74
2023/09/24 03:09:41;;;;;;;57.22;15.30;;;10.20;99.90;;;;;;4988202;28;20038;-74
2023/09/24 03:12:07;;;;;;;64.43;15.00;;;10.20;99.90;;;;;;4987720;28;20085;-74
2023/09/24 03:14:32;;;;;;;59.63;15.38;;;10.30;99.90;;;;;;4986917;28;20118;-73
2023/09/24 03:16:59;;;;;;;64.82;15.82;;;10.30;99.90;;;;;;4969136;28;20486;-75
2023/09/24 03:19:24;;;;;;;79.28;15.48;;;10.20;99.90;;;;;;4966411;28;20070;-73
2023/09/24 03:21:50;;;;;;;83.72;15.45;;;10.30;99.90;;;;;;4983167;28;20109;-73
2023/09/24 03:24:16;;;;;;;74.20;16.25;;;10.20;99.90;;;;;;4987740;28;20054;-73
2023/09/24 03:26:42;;;;;;;60.72;15.15;;;10.30;99.90;;;;;;4984555;28;20030;-74
2023/09/24 03:29:07;;;;;;;75.15;15.43;;;10.20;99.90;;;;;;4986500;28;20097;-74
2023/09/24 03:31:33;;;;;;;59.90;14.75;;;10.20;99.90;;;;;;4987497;28;20325;-74
2023/09/24 03:33:59;;;;;;;54.40;14.15;;;10.20;99.90;;;;;;4984114;28;20449;-74
2023/09/24 03:36:24;;;;;;;76.40;15.20;;;10.20;99.90;;;;;;4984653;28;20065;-73
2023/09/24 03:38:50;;;;;;;61.22;15.02;;;10.20;99.90;;;;;;4987422;28;20053;-74
2023/09/24 03:41:15;;;;;;;72.25;14.45;;;10.10;99.90;;;;;;4989991;28;20070;-73
2023/09/24 03:43:42;;;;;;;67.80;15.02;;;10.10;99.90;;;;;;4984867;28;20486;-73
2023/09/24 03:46:09;;;;;;;55.97;14.40;;;10.10;99.90;;;;;;4987116;28;20034;-74
2023/09/24 03:48:35;;;;;;;85.38;15.38;;;10.10;99.90;;;;;;4980332;28;21306;-73
2023/09/24 03:51:01;;;;;;;60.33;14.88;;;10.10;99.90;;;;;;4988473;28;20034;-74
2023/09/24 03:53:26;;;;;;;67.75;15.13;;;10.10;99.90;;;;;;4988970;28;20447;-73
2023/09/24 03:55:53;;;;;;;71.97;14.55;;;10.10;99.90;;;;;;4992072;28;20440;-73
2023/09/24 03:58:18;;;;;;;73.95;14.73;;;10.10;99.90;;;;;;4982965;28;20030;-73
2023/09/24 04:00:44;;;;;;;56.95;14.48;;;10.20;99.90;;;;;;4983037;28;20117;-73
2023/09/24 04:03:09;;;;;;;61.38;15.27;;;10.10;99.90;;;;;;4976999;28;20037;-73
2023/09/24 04:05:35;;;;;;;70.10;14.60;;;10.20;99.90;;;;;;4985380;28;20034;-73
2023/09/24 04:08:03;;;;;;;59.38;15.27;;;10.10;99.90;;;;;;4991184;28;20038;-71
2023/09/24 04:10:29;;;;;;;59.03;14.35;;;10.20;99.90;;;;;;4987178;28;20035;-71
2023/09/24 04:12:57;;;;;;;59.50;13.27;;;10.10;99.90;;;;;;4988069;28;20485;-73
2023/09/24 04:15:27;;;;;;;51.33;13.95;;;10.10;99.90;;;;;;4988477;28;20057;-71
2023/09/24 04:17:55;;;;;;;56.00;14.02;;;10.20;99.90;;;;;;4981834;28;20454;-71
2023/09/24 04:20:21;;;;;;;62.13;14.98;;;10.10;99.90;;;;;;4990700;28;20034;-71
2023/09/24 04:22:47;;;;;;;57.72;12.75;;;10.20;99.90;;;;;;4988780;28;20033;-72
2023/09/24 04:25:14;;;;;;;53.35;13.18;;;10.20;99.90;;;;;;4987254;28;22223;-71
2023/09/24 04:27:43;;;;;;;53.17;12.98;;;10.10;99.90;;;;;;4989293;28;20030;-66
2023/09/24 04:30:16;;;;;;;46.95;14.02;;;10.10;99.90;;;;;;4986780;28;20046;-68
2023/09/24 04:32:49;;;;;;;61.20;14.35;;;10.20;99.90;;;;;;4984239;28;20062;-68
2023/09/24 04:35:19;;;;;;;67.88;14.20;;;10.10;99.90;;;;;;4986399;28;20084;-67
2023/09/24 04:37:48;;;;;;;54.15;13.10;;;10.20;99.90;;;;;;4989865;28;20045;-68
2023/09/24 04:40:16;;;;;;;71.10;13.70;;;10.20;99.90;;;;;;4986425;28;20030;-67
2023/09/24 04:42:46;;;;;;;62.80;12.75;;;10.20;99.90;;;;;;4989227;28;20038;-67
2023/09/24 04:45:14;;;;;;;69.07;13.30;;;10.20;99.90;;;;;;4984041;28;20387;-68
2023/09/24 04:47:41;;;;;;;47.15;12.18;;;10.10;99.90;;;;;;4986368;28;20459;-68
2023/09/24 04:50:10;;;;;;;61.67;13.30;;;10.20;99.90;;;;;;4987648;28;20041;-69
2023/09/24 04:52:37;;;;;;;63.42;14.20;;;10.10;99.90;;;;;;4986766;28;20026;-67
2023/09/24 04:55:05;;;;;;;45.33;13.40;;;10.10;99.90;;;;;;4989037;28;20038;-67
2023/09/24 04:57:30;;;;;;;54.22;13.10;;;10.20;99.90;;;;;;4993087;28;20038;-67
2023/09/24 04:59:56;;;;;;;59.83;12.52;;;10.20;99.90;;;;;;4980175;28;20031;-68
2023/09/24 05:02:23;;;;;;;55.90;13.65;;;10.10;99.90;;;;;;4985080;28;20121;-68
2023/09/24 05:04:52;;;;;;;53.63;12.65;;;10.10;99.90;;;;;;4983531;28;20108;-67
2023/09/24 05:07:18;;;;;;;56.28;11.60;;;10.10;99.90;;;;;;4989169;28;20030;-68
2023/09/24 05:09:44;;;;;;;52.10;12.13;;;10.10;99.90;;;;;;4991585;28;20026;-67
2023/09/24 05:12:10;;;;;;;49.78;12.10;;;10.10;99.90;;;;;;4992387;28;20053;-68
2023/09/24 05:14:35;;;;;;;45.92;11.13;;;10.00;99.90;;;;;;4989839;28;20060;-67
2023/09/24 05:17:01;;;;;;;54.92;10.82;;;10.00;99.90;;;;;;4969771;28;20077;-67
2023/09/24 05:19:27;;;;;;;87.05;11.40;;;10.00;99.90;;;;;;4980585;28;20482;-67
2023/09/24 05:21:52;;;;;;;76.10;11.68;;;9.90;99.90;;;;;;4984281;28;20043;-67
2023/09/24 05:24:18;;;;;;;55.67;11.98;;;9.90;99.90;;;;;;4988890;28;20121;-68
2023/09/24 05:26:44;;;;;;;53.72;11.38;;;9.90;99.90;;;;;;4988863;28;20079;-69
2023/09/24 05:29:10;;;;;;;71.70;10.65;;;9.90;99.90;;;;;;4973227;28;20031;-72
2023/09/24 05:31:36;;;;;;;51.45;11.48;;;9.90;99.90;;;;;;4977889;28;20030;-70
2023/09/24 05:34:04;;;;;;;65.35;10.85;;;9.90;99.90;;;;;;4986386;28;20374;-70
2023/09/24 05:36:30;;;;;;;58.92;10.18;;;9.80;99.90;;;;;;4970605;28;20026;-70
2023/09/24 05:38:57;;;;;;;63.15;11.15;;;9.80;99.90;;;;;;4989401;28;20026;-69
2023/09/24 05:41:22;;;;;;;53.08;10.65;;;9.80;99.90;;;;;;4985551;28;20459;-69
2023/09/24 05:43:48;;;;;;;68.22;10.30;;;9.80;99.90;;;;;;4987350;28;20030;-71
2023/09/24 05:46:16;;;;;;;52.13;10.63;;;9.80;99.90;;;;;;4982113;28;20038;-70
2023/09/24 05:48:44;;;;;;;49.03;9.75;;;9.90;99.90;;;;;;4988756;28;20034;-70
2023/09/24 05:51:09;;;;;;;46.88;9.40;;;9.90;99.90;;;;;;4983628;28;20031;-72
2023/09/24 05:53:35;;;;;;;46.42;10.02;;;10.00;99.90;;;;;;4977797;28;20045;-69
2023/09/24 05:56:02;;;;;;;54.33;10.02;;;9.90;99.90;;;;;;4980984;28;20113;-67
2023/09/24 05:58:27;;;;;;;64.97;9.70;;;10.00;99.90;;;;;;4977021;28;20054;-69
2023/09/24 06:00:55;;;;;;;58.65;10.40;;;9.90;99.90;;;;;;4988681;28;20030;-67
2023/09/24 06:03:20;;;;;;;56.53;10.43;;;9.90;99.90;;;;;;4959418;28;20057;-67
2023/09/24 06:05:46;;;;;;;42.28;8.95;;;9.90;99.90;;;;;;4975761;28;20038;-67
2023/09/24 06:08:12;;;;;;;68.03;10.73;;;9.90;99.90;;;;;;4979931;28;20045;-67
2023/09/24 06:10:43;;;;;;;56.55;9.73;;;9.90;99.90;;;;;;4976994;28;20062;-69
2023/09/24 06:13:09;;;;;;;43.13;10.13;;;10.00;99.90;;;;;;4981317;28;20031;-67
2023/09/24 06:15:34;;;;;;;38.83;9.85;;;10.00;99.90;;;;;;4972177;28;20034;-67
2023/09/24 06:18:00;;;;;;;51.97;9.70;;;9.90;99.90;;;;;;4986244;28;20074;-67
2023/09/24 06:20:25;;;;;;;50.13;9.38;;;9.90;99.90;;;;;;4991988;28;20042;-67
2023/09/24 06:22:54;;;;;;;68.05;10.10;;;10.00;99.90;;;;;;4974656;28;20112;-67
2023/09/24 06:25:20;;;;;;;52.50;10.07;;;10.00;99.90;;;;;;4990470;28;20054;-68
2023/09/24 06:27:45;;;;;;;57.53;9.50;;;10.00;99.90;;;;;;4987174;28;20105;-67
2023/09/24 06:30:11;;;;;;;56.88;8.85;;;10.10;99.90;;;;;;4981742;28;20215;-68
2023/09/24 06:32:37;;;;;;;64.10;10.50;;;10.00;99.90;;;;;;4985067;28;20039;-69
2023/09/24 06:35:04;;;;;;;56.08;9.20;;;10.10;99.90;;;;;;4978639;28;20035;-67
2023/09/24 06:37:30;;;;;;;52.83;9.15;;;10.20;99.90;;;;;;4984249;28;20050;-67
2023/09/24 06:39:55;;;;;;;45.78;9.43;;;10.10;99.90;;;;;;4961800;28;20130;-68
2023/09/24 06:42:21;;;;;;;41.95;8.63;;;10.30;99.90;;;;;;4980336;28;20410;-67
2023/09/24 06:44:47;;;;;;;53.47;8.40;;;10.30;99.90;;;;;;4985940;28;20026;-67
2023/09/24 06:47:13;;;;;;;38.92;7.90;;;10.20;99.90;;;;;;4980568;28;20018;-67
2023/09/24 06:49:38;;;;;;;32.72;8.45;;;10.10;99.90;;;;;;4982429;28;20460;-67
2023/09/24 06:52:04;;;;;;;34.55;9.07;;;10.30;99.90;;;;;;4989000;28;20206;-67
2023/09/24 06:54:31;;;;;;;26.75;7.85;;;10.40;99.90;;;;;;4978480;28;20463;-68
2023/09/24 06:56:58;;;;;;;32.47;8.88;;;10.50;99.90;;;;;;4982709;28;20068;-67
2023/09/24 06:59:24;;;;;;;26.65;8.23;;;10.60;99.90;;;;;;4968335;28;20042;-68
2023/09/24 07:01:50;;;;;;;29.55;9.32;;;10.80;99.90;;;;;;4976057;28;20106;-72
2023/09/24 07:04:15;;;;;;;26.65;8.13;;;10.80;99.90;;;;;;4983088;28;20052;-67
2023/09/24 07:06:41;;;;;;;31.25;8.63;;;10.80;99.90;;;;;;4982015;28;20050;-68
2023/09/24 07:09:07;;;;;;;23.15;7.70;;;10.90;99.90;;;;;;4989114;28;20041;-67
2023/09/24 07:11:38;;;;;;;39.53;7.85;;;10.80;99.90;;;;;;4966437;28;20446;-70
2023/09/24 07:14:07;;;;;;;36.35;8.13;;;10.70;99.90;;;;;;4963057;28;20030;-70
2023/09/24 07:16:33;;;;;;;33.03;7.57;;;10.70;99.90;;;;;;4986657;28;20041;-68
2023/09/24 07:18:58;;;;;;;39.00;8.15;;;10.80;99.90;;;;;;4982411;28;20026;-67
2023/09/24 07:21:26;;;;;;;27.30;8.02;;;10.80;99.90;;;;;;4984402;28;20596;-67
2023/09/24 07:23:55;;;;;;;25.73;8.57;;;11.10;99.90;;;;;;4989173;28;20026;-67
2023/09/24 07:26:24;;;;;;;41.05;8.77;;;11.10;99.90;;;;;;4984538;28;20352;-68
2023/09/24 07:28:51;;;;;;;27.42;8.18;;;11.20;99.90;;;;;;4985277;28;20049;-67
2023/09/24 07:31:23;;;;;;;18.52;7.47;;;11.20;99.90;;;;;;4985259;28;20034;-68
2023/09/24 07:33:50;;;;;;;28.67;6.95;;;11.40;99.90;;;;;;4981341;28;20037;-68
2023/09/24 07:36:16;;;;;;;30.23;6.93;;;11.10;99.40;;;;;;4994195;28;20070;-67
2023/09/24 07:38:42;;;;;;;24.58;7.88;;;11.10;99.80;;;;;;4979789;28;20066;-67
2023/09/24 07:41:08;;;;;;;22.17;7.82;;;11.30;99.90;;;;;;4970193;28;20371;-68
2023/09/24 07:43:43;;;;;;;19.73;6.03;;;11.30;99.80;;;;;;4965738;28;20490;-68
2023/09/24 07:46:14;;;;;;;21.02;7.05;;;11.40;99.90;;;;;;4971907;28;20034;-68
2023/09/24 07:48:43;;;;;;;11.95;5.95;;;11.50;99.70;;;;;;4968599;28;20038;-69
2023/09/24 07:51:10;;;;;;;19.05;6.68;;;11.60;99.70;;;;;;4987244;28;22210;-67
2023/09/24 07:53:35;;;;;;;16.98;6.18;;;11.70;99.60;;;;;;4987829;28;20483;-68
2023/09/24 07:56:06;;;;;;;25.17;6.95;;;11.70;99.70;;;;;;4988332;28;20033;-68
2023/09/24 07:58:32;;;;;;;18.77;6.63;;;11.70;99.50;;;;;;4979460;28;20448;-69
2023/09/24 08:01:06;;;;;;;22.90;6.40;;;12.00;99.80;;;;;;4983696;28;20077;-68
2023/09/24 08:03:32;;;;;;;27.27;6.07;;;12.10;99.60;;;;;;4986581;28;20466;-68
2023/09/24 08:05:58;;;;;;;15.68;5.90;;;12.00;99.30;;;;;;4983195;28;20114;-67
2023/09/24 08:08:25;;;;;;;18.55;5.88;;;12.10;99.40;;;;;;4989055;28;20043;-68
2023/09/24 08:10:51;;;;;;;12.45;5.65;;;12.10;99.30;;;;;;4988312;28;20066;-69
2023/09/24 08:13:20;;;;;;;10.52;6.72;;;12.30;99.60;;;;;;4986538;28;20061;-67
2023/09/24 08:15:46;;;;;;;10.85;5.90;;;12.40;99.40;;;;;;4988696;28;20455;-68
2023/09/24 08:18:12;;;;;;;9.48;6.10;;;12.60;99.40;;;;;;4992161;28;20034;-69
2023/09/24 08:20:39;;;;;;;11.18;5.75;;;12.60;99.20;;;;;;4993306;28;20030;-70
2023/09/24 08:23:05;;;;;;;10.50;5.95;;;12.60;99.10;;;;;;4990269;28;20431;-69
2023/09/24 08:25:31;;;;;;;10.52;6.22;;;12.50;98.80;;;;;;4995374;28;20533;-71
2023/09/24 08:27:57;;;;;;;8.75;5.35;;;12.60;98.70;;;;;;4991216;28;20026;-70
2023/09/24 08:30:23;;;;;;;9.02;5.32;;;12.60;98.60;;;;;;4987165;28;21727;-67
2023/09/24 08:32:48;;;;;;;9.15;5.13;;;12.60;98.50;;;;;;4990545;28;20038;-67
2023/09/24 08:35:14;;;;;;;8.82;5.07;;;12.60;98.60;;;;;;4991408;28;20433;-68
2023/09/24 08:37:39;;;;;;;8.00;5.03;;;12.60;98.40;;;;;;4991218;28;20042;-69
2023/09/24 08:40:07;;;;;;;8.00;5.00;;;12.70;98.20;;;;;;4978890;28;20034;-68
2023/09/24 08:42:32;;;;;;;7.80;4.80;;;12.70;98.40;;;;;;4980170;28;20088;-70
2023/09/24 08:45:14;;;;;;;7.53;4.47;;;12.70;98.20;;;;;;4986182;28;20058;-68
2023/09/24 08:47:40;;;;;;;7.10;4.22;;;12.80;98.30;;;;;;4992159;28;20027;-71
2023/09/24 08:50:07;;;;;;;8.95;4.57;;;12.90;98.00;;;;;;4982170;28;20050;-67
2023/09/24 08:52:39;;;;;;;8.85;4.68;;;12.90;98.20;;;;;;4985035;28;20647;-68
2023/09/24 08:55:06;;;;;;;6.15;3.72;;;12.60;97.80;;;;;;4987923;28;20073;-68
2023/09/24 08:57:34;;;;;;;7.38;4.00;;;12.60;97.90;;;;;;4986223;28;20030;-67
2023/09/24 09:00:00;;;;;;;7.47;3.75;;;12.60;98.10;;;;;;4982721;28;20039;-70
2023/09/24 09:02:27;;;;;;;5.72;3.78;;;12.60;98.40;;;;;;4987165;28;20053;-67
2023/09/24 09:04:55;;;;;;;6.50;3.80;;;12.60;98.30;;;;;;4991471;28;20113;-67
2023/09/24 09:07:20;;;;;;;7.85;4.03;;;12.60;98.30;;;;;;4988104;28;20402;-69
2023/09/24 09:09:54;;;;;;;6.50;4.20;;;12.70;98.30;;;;;;4994389;28;20101;-69
2023/09/24 09:12:24;;;;;;;6.25;4.10;;;12.80;98.20;;;;;;4984179;28;20057;-70
2023/09/24 09:14:50;;;;;;;6.68;3.60;;;12.70;98.10;;;;;;4990544;28;20026;-70
2023/09/24 09:17:16;;;;;;;5.32;3.50;;;12.50;97.70;;;;;;4989224;28;20087;-69
2023/09/24 09:19:59;;;;;;;5.55;3.53;;;12.40;97.70;;;;;;4993451;28;20046;-69
2023/09/24 09:22:27;;;;;;;6.25;3.53;;;12.60;98.20;;;;;;4981440;28;20058;-69
2023/09/24 09:25:09;;;;;;;5.88;3.78;;;12.50;98.10;;;;;;4982816;28;20113;-69
2023/09/24 09:27:43;;;;;;;6.55;3.83;;;12.60;98.00;;;;;;4970276;28;20864;-69
2023/09/24 09:30:20;;;;;;;6.75;3.90;;;12.50;97.80;;;;;;4981888;28;20038;-69
2023/09/24 09:32:47;;;;;;;7.40;4.13;;;12.50;98.00;;;;;;4966510;28;20033;-71
2023/09/24 09:35:14;;;;;;;9.00;4.45;;;12.40;98.10;;;;;;4985878;28;20084;-72
2023/09/24 09:37:41;;;;;;;7.55;4.68;;;12.50;98.20;;;;;;4989327;28;20030;-71
2023/09/24 09:40:08;;;;;;;8.75;4.68;;;12.50;98.20;;;;;;4971373;28;20030;-70
2023/09/24 09:42:36;;;;;;;7.13;4.53;;;12.60;98.40;;;;;;4985168;28;20046;-71
2023/09/24 09:45:09;;;;;;;8.20;5.15;;;12.60;98.20;;;;;;4983317;28;20076;-71
2023/09/24 09:47:54;;;;;;;8.57;4.78;;;12.70;98.40;;;;;;4986966;28;20085;-71
2023/09/24 09:50:24;;;;;;;7.72;4.82;;;12.70;98.10;;;;;;4976058;28;22215;-70
2023/09/24 09:52:53;;;;;;;8.65;4.80;;;12.70;98.30;;;;;;4987753;28;20041;-69
2023/09/24 09:55:20;;;;;;;8.63;4.80;;;12.70;98.10;;;;;;4987471;28;20117;-70
2023/09/24 09:57:46;;;;;;;10.13;4.78;;;12.70;97.90;;;;;;4963640;28;20042;-69
2023/09/24 10:00:14;;;;;;;8.10;4.97;;;13.00;98.50;;;;;;4985108;28;20018;-69
2023/09/24 10:02:41;;;;;;;9.98;4.93;;;13.00;98.30;;;;;;4989446;28;20038;-70
2023/09/24 10:05:10;;;;;;;8.35;5.32;;;13.00;98.20;;;;;;4985412;28;20035;-71
2023/09/24 10:07:37;;;;;;;8.95;5.80;;;12.90;98.00;;;;;;4977929;28;20034;-70
2023/09/24 10:10:31;;;;;;;10.27;5.50;;;13.00;98.40;;;;;;4993503;28;20027;-69
2023/09/24 10:12:58;;;;;;;10.68;5.95;;;13.10;98.40;;;;;;4984653;28;20034;-68
2023/09/24 10:15:27;;;;;;;10.45;6.07;;;13.10;98.00;;;;;;4982943;28;20814;-68
2023/09/24 10:18:11;;;;;;;8.57;5.47;;;13.10;97.90;;;;;;4984579;28;20022;-69
2023/09/24 10:20:49;;;;;;;10.95;5.70;;;13.20;97.90;;;;;;4985960;28;20026;-67
2023/09/24 10:23:29;;;;;;;8.77;5.50;;;13.20;98.00;;;;;;4984012;28;20034;-67
2023/09/24 10:26:04;;;;;;;9.82;5.85;;;13.20;97.70;;;;;;4969183;28;20397;-68
2023/09/24 10:28:47;;;;;;;9.43;5.80;;;13.20;97.80;;;;;;4989625;28;20034;-68
2023/09/24 10:31:12;;;;;;;;;;;13.30;97.90;;;;;;4984286;28;20030;-68
2023/09/24 10:34:04;;;;;;;10.43;5.55;;;13.40;98.00;;;;;;4987693;28;20810;-68
2023/09/24 10:36:33;;;;;;;9.07;5.38;;;13.50;97.80;;;;;;4984922;28;20486;-71
2023/09/24 10:39:12;;;;;;;9.85;5.88;;;13.50;97.50;;;;;;4987293;28;20037;-68
2023/09/24 10:42:11;;;;;;;10.18;5.65;;;13.50;97.40;;;;;;4971534;28;20041;-68
2023/09/24 10:44:39;;;;;;;9.25;5.85;;;13.60;97.70;;;;;;4983450;28;20474;-67
2023/09/24 10:47:30;;;;;;;10.05;5.93;;;13.80;97.80;;;;;;4992695;28;20133;-68
2023/09/24 10:50:05;;;;;;;10.75;5.50;;;14.00;97.60;;;;;;4990067;28;20038;-68
2023/09/24 10:52:58;;;;;;;8.68;5.30;;;14.10;97.00;;;;;;4983908;28;20037;-68
2023/09/24 10:55:39;;;;;;;7.97;5.25;;;14.00;95.90;;;;;;4979612;28;20030;-68
2023/09/24 10:58:12;;;;;;;8.90;5.65;;;14.10;96.10;;;;;;4982860;28;20452;-69
2023/09/24 11:00:38;;;;;;;8.15;5.30;;;14.40;96.10;;;;;;4982779;28;20022;-68
2023/09/24 11:03:05;;;;;;;9.35;5.43;;;14.30;96.00;;;;;;4989537;28;20041;-70
2023/09/24 11:05:41;;;;;;;8.10;4.82;;;14.40;95.60;;;;;;4981323;28;20521;-67
2023/09/24 11:08:06;;;;;;;8.10;5.25;;;14.40;95.80;;;;;;4981914;28;20026;-68
2023/09/24 11:10:32;;;;;;;7.93;5.20;;;14.60;96.10;;;;;;4971562;28;20033;-68
2023/09/24 11:13:03;;;;;;;8.95;5.35;;;14.50;95.40;;;;;;4982933;28;20047;-67
2023/09/24 11:15:34;;;;;;;8.52;4.95;;;14.60;95.60;;;;;;4979109;28;20112;-68
2023/09/24 11:18:00;;;;;;;8.70;5.05;;;15.00;95.20;;;;;;4974960;28;20034;-67
2023/09/24 11:20:28;;;;;;;7.75;4.40;;;15.30;94.60;;;;;;4990404;28;20479;-68
2023/09/24 11:22:58;;;;;;;7.72;4.82;;;15.10;92.50;;;;;;4984809;28;20052;-69
2023/09/24 11:25:24;;;;;;;8.00;4.32;;;15.30;93.90;;;;;;4979730;28;20534;-68
2023/09/24 11:27:54;;;;;;;8.00;4.70;;;15.40;93.00;;;;;;4979511;28;20038;-68
2023/09/24 11:30:22;;;;;;;8.13;3.70;;;16.00;91.10;;;;;;4979671;28;20035;-68
2023/09/24 11:32:49;;;;;;;5.82;3.90;;;16.60;91.50;;;;;;4983951;28;20038;-68
2023/09/24 11:35:20;;;;;;;5.80;3.40;;;16.70;90.70;;;;;;4982183;28;20094;-69
2023/09/24 11:37:54;;;;;;;8.90;3.30;;;16.40;90.00;;;;;;4978809;28;20026;-69
2023/09/24 11:40:20;;;;;;;5.97;3.42;;;16.10;89.30;;;;;;4988318;28;20033;-68
2023/09/24 11:42:57;;;;;;;5.60;3.53;;;16.30;90.30;;;;;;4979497;28;20494;-70
2023/09/24 11:45:46;;;;;;;6.88;3.83;;;16.30;89.50;;;;;;4982241;28;20467;-70
2023/09/24 11:48:14;;;;;;;7.70;3.45;;;17.40;89.00;;;;;;4983940;28;20026;-69
2023/09/24 11:50:42;;;;;;;5.53;3.25;;;17.70;86.60;;;;;;4978426;28;20117;-70
2023/09/24 11:53:08;;;;;;;5.93;3.13;;;18.20;86.10;;;;;;4984206;28;20027;-68
2023/09/24 11:55:34;;;;;;;5.70;2.90;;;18.60;81.80;;;;;;4981400;28;20042;-71
2023/09/24 11:58:01;;;;;;;5.70;2.90;;;18.40;83.50;;;;;;4983496;28;20030;-71
2023/09/24 12:00:26;;;;;;;12.93;7.88;;;19.20;83.10;;;;;;4981592;28;20031;-68
2023/09/24 12:02:52;;;;;;;3.33;2.30;;;19.80;81.60;;;;;;4989445;28;20693;-69
2023/09/24 12:05:18;;;;;;;4.60;2.45;;;19.30;75.20;;;;;;4983125;28;20033;-69
2023/09/24 12:07:43;;;;;;;3.38;2.05;;;19.10;75.20;;;;;;4985766;28;20434;-69
2023/09/24 12:10:09;;;;;;;3.25;1.98;;;19.30;77.10;;;;;;4983646;28;20031;-69
2023/09/24 12:12:34;;;;;;;4.43;1.92;;;19.30;77.00;;;;;;4986108;28;20041;-68
2023/09/24 12:15:00;;;;;;;3.50;1.92;;;19.20;74.30;;;;;;4983329;28;20033;-70
2023/09/24 12:17:26;;;;;;;3.92;1.73;;;19.30;76.30;;;;;;4980268;28;20034;-69
2023/09/24 12:19:52;;;;;;;3.40;2.10;;;19.00;76.50;;;;;;4975469;28;20026;-69
2023/09/24 12:22:18;;;;;;;2.95;1.92;;;18.70;76.70;;;;;;4981983;28;20018;-69
2023/09/24 12:24:43;;;;;;;4.65;1.83;;;18.60;76.70;;;;;;4980514;28;20050;-68
2023/09/24 12:27:09;;;;;;;3.30;2.00;;;19.10;79.30;;;;;;4973274;28;20122;-72
2023/09/24 12:29:35;;;;;;;2.20;1.65;;;19.50;78.00;;;;;;4958490;28;20408;-73
2023/09/24 12:32:00;;;;;;;4.82;1.80;;;19.40;72.40;;;;;;4977403;28;20029;-72
2023/09/24 12:34:26;;;;;;;3.75;2.00;;;19.50;75.80;;;;;;4972495;28;20066;-70
2023/09/24 12:36:51;;;;;;;3.55;1.50;;;19.10;76.10;;;;;;4985555;28;20038;-69
2023/09/24 12:39:20;;;;;;;2.80;1.75;;;19.10;75.90;;;;;;4965394;28;20041;-69
2023/09/24 12:41:48;;;;;;;3.20;1.80;;;19.80;76.10;;;;;;4980666;28;20034;-69